createdAt,value
2023-05-02T00:00:47.650Z,29.54
2023-05-02T00:01:47.764Z,29.54
2023-05-02T00:02:47.639Z,29.81
2023-05-02T00:03:47.701Z,29.70
2023-05-02T00:04:47.498Z,29.54
2023-05-02T00:05:47.494Z,29.54
2023-05-02T00:06:47.541Z,29.49
2023-05-02T00:07:47.461Z,29.54
2023-05-02T00:08:47.451Z,29.54
2023-05-02T00:09:47.443Z,29.59
2023-05-02T00:10:47.417Z,29.54
2023-05-02T00:11:47.403Z,29.54
2023-05-02T00:12:47.386Z,29.70
2023-05-02T00:13:47.381Z,29.59
2023-05-02T00:14:47.370Z,29.54
2023-05-02T00:15:47.348Z,29.59
2023-05-02T00:16:47.622Z,29.54
2023-05-02T00:17:47.408Z,29.49
2023-05-02T00:18:47.305Z,29.59
2023-05-02T00:19:47.330Z,29.65
2023-05-02T00:20:47.287Z,29.54
2023-05-02T00:21:47.270Z,29.65
2023-05-02T00:22:47.258Z,29.76
2023-05-02T00:23:47.250Z,29.76
2023-05-02T00:24:47.237Z,29.54
2023-05-02T00:25:47.215Z,29.59
2023-05-02T00:26:47.205Z,29.54
2023-05-02T00:27:47.192Z,29.49
2023-05-02T00:28:47.182Z,29.59
2023-05-02T00:29:47.163Z,29.54
2023-05-02T00:30:47.345Z,29.65
2023-05-02T00:31:47.142Z,29.54
2023-05-02T00:32:47.171Z,29.59
2023-05-02T00:33:47.122Z,29.54
2023-05-02T00:34:47.095Z,29.59
2023-05-02T00:35:47.111Z,29.17
2023-05-02T00:36:47.074Z,29.17
2023-05-02T00:37:47.261Z,29.59
2023-05-02T00:38:47.288Z,29.59
2023-05-02T00:39:47.038Z,29.38
2023-05-02T00:40:47.251Z,29.33
2023-05-02T00:41:47.003Z,29.59
2023-05-02T00:42:47.020Z,29.54
2023-05-02T00:43:46.983Z,29.59
2023-05-02T00:44:46.967Z,29.54
2023-05-02T00:45:46.958Z,29.11
2023-05-02T00:46:47.128Z,29.27
2023-05-02T00:47:46.956Z,29.54
2023-05-02T00:48:46.915Z,29.59
2023-05-02T00:49:46.925Z,29.59
2023-05-02T00:50:46.899Z,29.38
2023-05-02T00:51:47.060Z,29.49
2023-05-02T00:52:46.868Z,29.54
2023-05-02T00:53:46.853Z,29.59
2023-05-02T00:54:46.833Z,29.81
2023-05-02T00:55:46.814Z,29.22
2023-05-02T00:56:46.816Z,29.59
2023-05-02T00:57:46.790Z,29.22
2023-05-02T00:58:46.775Z,29.59
2023-05-02T00:59:46.762Z,29.65
2023-05-02T01:00:46.750Z,29.17
2023-05-02T01:01:46.788Z,29.54
2023-05-02T01:02:46.822Z,29.17
2023-05-02T01:03:46.811Z,29.33
2023-05-02T01:04:46.700Z,29.49
2023-05-02T01:05:46.694Z,29.65
2023-05-02T01:06:46.798Z,29.38
2023-05-02T01:07:46.678Z,29.22
2023-05-02T01:08:46.642Z,29.76
2023-05-02T01:09:46.626Z,29.17
2023-05-02T01:10:46.617Z,29.54
2023-05-02T01:11:46.610Z,29.17
2023-05-02T01:12:46.592Z,29.54
2023-05-02T01:13:46.587Z,29.54
2023-05-02T01:14:46.569Z,29.59
2023-05-02T01:15:46.779Z,29.11
2023-05-02T01:16:46.541Z,29.76
2023-05-02T01:17:46.553Z,29.17
2023-05-02T01:18:46.517Z,29.17
2023-05-02T01:19:46.490Z,29.17
2023-05-02T01:20:46.482Z,29.59
2023-05-02T01:21:46.465Z,29.43
2023-05-02T01:22:46.461Z,29.17
2023-05-02T01:23:46.472Z,29.22
2023-05-02T01:24:46.432Z,29.59
2023-05-02T01:25:46.414Z,29.22
2023-05-02T01:26:46.409Z,29.11
2023-05-02T01:27:46.439Z,29.59
2023-05-02T01:28:46.386Z,29.54
2023-05-02T01:29:46.364Z,29.33
2023-05-02T01:30:46.360Z,29.43
2023-05-02T01:31:46.410Z,29.17
2023-05-02T01:32:46.390Z,29.33
2023-05-02T01:33:46.362Z,29.22
2023-05-02T01:34:46.302Z,29.59
2023-05-02T01:35:46.281Z,29.22
2023-05-02T01:36:46.267Z,29.54
2023-05-02T01:37:46.253Z,29.17
2023-05-02T01:38:46.250Z,29.11
2023-05-02T01:39:46.303Z,29.54
2023-05-02T01:40:46.430Z,29.17
2023-05-02T01:41:46.208Z,29.33
2023-05-02T01:42:46.194Z,29.22
2023-05-02T01:43:46.184Z,29.33
2023-05-02T01:44:46.169Z,28.84
2023-05-02T01:45:46.150Z,29.59
2023-05-02T01:46:46.236Z,29.49
2023-05-02T01:47:46.200Z,29.17
2023-05-02T01:48:46.415Z,29.22
2023-05-02T01:49:46.098Z,29.59
2023-05-02T01:50:46.241Z,29.22
2023-05-02T01:51:46.082Z,29.17
2023-05-02T01:52:46.415Z,29.27
2023-05-02T01:53:46.057Z,29.17
2023-05-02T01:54:46.141Z,29.22
2023-05-02T01:55:46.066Z,29.22
2023-05-02T01:56:46.020Z,29.33
2023-05-02T01:57:46.013Z,29.17
2023-05-02T01:58:46.088Z,29.59
2023-05-02T01:59:46.244Z,29.17
2023-05-02T02:00:45.996Z,29.17
2023-05-02T02:01:45.943Z,29.17
2023-05-02T02:02:45.928Z,29.22
2023-05-02T02:03:45.950Z,29.17
2023-05-02T02:04:45.999Z,29.17
2023-05-02T02:05:45.888Z,29.17
2023-05-02T02:06:45.919Z,29.17
2023-05-02T02:07:45.871Z,29.33
2023-05-02T02:08:45.858Z,29.17
2023-05-02T02:09:45.866Z,29.17
2023-05-02T02:10:45.840Z,29.11
2023-05-02T02:11:45.919Z,29.33
2023-05-02T02:12:45.792Z,29.22
2023-05-02T02:13:45.780Z,29.22
2023-05-02T02:14:45.771Z,29.22
2023-05-02T02:15:45.757Z,29.59
2023-05-02T02:16:45.772Z,29.38
2023-05-02T02:17:45.769Z,29.17
2023-05-02T02:18:45.871Z,29.17
2023-05-02T02:19:45.707Z,29.22
2023-05-02T02:20:45.697Z,29.22
2023-05-02T02:21:45.676Z,29.06
2023-05-02T02:22:45.703Z,29.17
2023-05-02T02:23:45.648Z,29.22
2023-05-02T02:24:45.633Z,29.17
2023-05-02T02:25:45.844Z,29.11
2023-05-02T02:26:45.605Z,29.17
2023-05-02T02:27:45.725Z,29.22
2023-05-02T02:28:45.586Z,29.22
2023-05-02T02:29:45.577Z,29.22
2023-05-02T02:30:45.573Z,29.17
2023-05-02T02:31:45.543Z,29.11
2023-05-02T02:32:45.654Z,29.17
2023-05-02T02:33:45.518Z,29.17
2023-05-02T02:34:45.511Z,29.22
2023-05-02T02:35:45.492Z,29.22
2023-05-02T02:36:45.827Z,29.22
2023-05-02T02:37:45.465Z,29.17
2023-05-02T02:38:45.445Z,29.38
2023-05-02T02:39:45.430Z,29.17
2023-05-02T02:40:45.430Z,29.17
2023-05-02T02:41:45.412Z,29.38
2023-05-02T02:42:45.398Z,29.22
2023-05-02T02:43:45.405Z,29.17
2023-05-02T02:44:45.372Z,29.06
2023-05-02T02:45:45.404Z,29.17
2023-05-02T02:46:45.418Z,29.17
2023-05-02T02:47:45.335Z,29.27
2023-05-02T02:48:45.319Z,29.22
2023-05-02T02:49:45.298Z,29.22
2023-05-02T02:50:45.285Z,29.17
2023-05-02T02:51:45.272Z,29.22
2023-05-02T02:52:45.263Z,29.00
2023-05-02T02:53:45.245Z,29.06
2023-05-02T02:54:45.237Z,29.33
2023-05-02T02:55:45.214Z,29.17
2023-05-02T02:56:45.210Z,29.06
2023-05-02T02:57:45.192Z,29.11
2023-05-02T02:58:45.186Z,29.11
2023-05-02T02:59:45.191Z,29.17
2023-05-02T03:00:45.154Z,29.17
2023-05-02T03:01:45.252Z,29.17
2023-05-02T03:02:45.142Z,29.22
2023-05-02T03:03:45.145Z,29.22
2023-05-02T03:04:45.104Z,29.17
2023-05-02T03:05:45.087Z,29.22
2023-05-02T03:06:45.165Z,29.22
2023-05-02T03:07:45.058Z,29.33
2023-05-02T03:08:45.045Z,29.22
2023-05-02T03:09:45.111Z,29.17
2023-05-02T03:10:45.027Z,29.11
2023-05-02T03:11:45.008Z,29.17
2023-05-02T03:12:44.988Z,29.38
2023-05-02T03:13:44.983Z,29.11
2023-05-02T03:14:44.965Z,28.90
2023-05-02T03:15:44.996Z,29.33
2023-05-02T03:16:45.110Z,29.33
2023-05-02T03:17:45.002Z,29.33
2023-05-02T03:18:44.918Z,29.17
2023-05-02T03:19:44.924Z,29.11
2023-05-02T03:20:44.900Z,29.27
2023-05-02T03:21:44.880Z,29.17
2023-05-02T03:22:44.862Z,29.11
2023-05-02T03:23:44.846Z,29.27
2023-05-02T03:24:44.828Z,29.17
2023-05-02T03:25:44.832Z,29.27
2023-05-02T03:26:44.806Z,29.17
2023-05-02T03:27:44.797Z,29.17
2023-05-02T03:28:44.779Z,29.06
2023-05-02T03:29:44.766Z,29.17
2023-05-02T03:30:44.767Z,29.22
2023-05-02T03:31:44.796Z,29.06
2023-05-02T03:32:44.806Z,29.33
2023-05-02T03:33:44.710Z,28.79
2023-05-02T03:34:44.699Z,29.06
2023-05-02T03:35:44.685Z,29.17
2023-05-02T03:36:44.675Z,29.33
2023-05-02T03:37:44.668Z,29.22
2023-05-02T03:38:44.646Z,29.00
2023-05-02T03:39:44.636Z,29.17
2023-05-02T03:40:44.628Z,29.17
2023-05-02T03:41:44.631Z,29.22
2023-05-02T03:42:44.593Z,29.17
2023-05-02T03:43:44.580Z,29.27
2023-05-02T03:44:44.568Z,29.11
2023-05-02T03:45:44.554Z,29.11
2023-05-02T03:46:44.562Z,29.27
2023-05-02T03:47:44.590Z,29.11
2023-05-02T03:48:44.510Z,29.17
2023-05-02T03:49:44.506Z,29.22
2023-05-02T03:50:44.493Z,29.27
2023-05-02T03:51:44.475Z,28.84
2023-05-02T03:52:44.456Z,29.38
2023-05-02T03:53:44.490Z,29.22
2023-05-02T03:54:44.435Z,29.22
2023-05-02T03:55:44.419Z,29.17
2023-05-02T03:56:44.428Z,29.17
2023-05-02T03:57:44.395Z,29.17
2023-05-02T03:58:44.382Z,28.79
2023-05-02T03:59:44.379Z,29.22
2023-05-02T04:00:44.352Z,28.79
2023-05-02T04:01:44.364Z,29.17
2023-05-02T04:02:44.420Z,29.11
2023-05-02T04:03:44.423Z,29.70
2023-05-02T04:04:44.421Z,28.79
2023-05-02T04:05:44.302Z,29.06
2023-05-02T04:06:44.349Z,29.17
2023-05-02T04:07:44.265Z,29.22
2023-05-02T04:08:44.281Z,29.00
2023-05-02T04:09:44.243Z,29.17
2023-05-02T04:10:44.215Z,29.17
2023-05-02T04:11:44.203Z,29.11
2023-05-02T04:12:44.218Z,28.74
2023-05-02T04:13:44.184Z,29.59
2023-05-02T04:14:44.170Z,29.22
2023-05-02T04:15:44.152Z,28.74
2023-05-02T04:16:44.169Z,29.17
2023-05-02T04:17:44.163Z,29.27
2023-05-02T04:18:44.119Z,29.22
2023-05-02T04:19:44.118Z,29.17
2023-05-02T04:20:44.087Z,28.84
2023-05-02T04:21:44.077Z,28.90
2023-05-02T04:22:44.072Z,28.79
2023-05-02T04:23:44.052Z,28.74
2023-05-02T04:24:44.033Z,29.22
2023-05-02T04:25:44.020Z,29.11
2023-05-02T04:26:44.006Z,29.43
2023-05-02T04:27:44.008Z,29.22
2023-05-02T04:28:43.979Z,28.90
2023-05-02T04:29:43.975Z,29.17
2023-05-02T04:30:43.992Z,28.95
2023-05-02T04:31:43.937Z,28.84
2023-05-02T04:32:44.004Z,28.74
2023-05-02T04:33:43.907Z,29.22
2023-05-02T04:34:43.894Z,29.22
2023-05-02T04:35:43.906Z,29.11
2023-05-02T04:36:43.865Z,28.74
2023-05-02T04:37:43.859Z,28.90
2023-05-02T04:38:43.852Z,29.00
2023-05-02T04:39:43.829Z,29.17
2023-05-02T04:40:43.825Z,28.68
2023-05-02T04:41:43.809Z,28.79
2023-05-02T04:42:43.794Z,28.74
2023-05-02T04:43:43.782Z,28.79
2023-05-02T04:44:43.793Z,28.79
2023-05-02T04:45:43.754Z,28.79
2023-05-02T04:46:43.887Z,28.90
2023-05-02T04:47:43.763Z,29.33
2023-05-02T04:48:43.712Z,29.22
2023-05-02T04:49:43.701Z,29.17
2023-05-02T04:50:43.695Z,28.95
2023-05-02T04:51:43.685Z,28.79
2023-05-02T04:52:43.655Z,28.79
2023-05-02T04:53:43.650Z,28.79
2023-05-02T04:54:43.624Z,29.33
2023-05-02T04:55:43.616Z,28.79
2023-05-02T04:56:43.600Z,29.17
2023-05-02T04:57:43.593Z,28.79
2023-05-02T04:58:43.580Z,28.95
2023-05-02T04:59:43.572Z,28.74
2023-05-02T05:00:43.541Z,28.74
2023-05-02T05:01:43.626Z,28.79
2023-05-02T05:02:43.712Z,29.17
2023-05-02T05:03:43.742Z,28.74
2023-05-02T05:04:43.503Z,28.79
2023-05-02T05:05:43.549Z,28.84
2023-05-02T05:06:43.514Z,29.11
2023-05-02T05:07:43.493Z,28.84
2023-05-02T05:08:43.444Z,28.79
2023-05-02T05:09:43.442Z,28.74
2023-05-02T05:10:43.418Z,28.74
2023-05-02T05:11:43.401Z,28.74
2023-05-02T05:12:43.391Z,28.84
2023-05-02T05:13:43.377Z,28.95
2023-05-02T05:14:43.366Z,28.68
2023-05-02T05:15:43.391Z,28.68
2023-05-02T05:16:43.429Z,28.74
2023-05-02T05:17:43.414Z,28.84
2023-05-02T05:18:43.309Z,28.84
2023-05-02T05:19:43.301Z,28.74
2023-05-02T05:20:43.288Z,28.79
2023-05-02T05:21:43.267Z,28.74
2023-05-02T05:22:43.263Z,28.79
2023-05-02T05:23:43.272Z,28.84
2023-05-02T05:24:43.327Z,28.74
2023-05-02T05:25:45.607Z,28.84
2023-05-02T05:26:43.197Z,28.79
2023-05-02T05:27:43.199Z,28.84
2023-05-02T05:28:43.182Z,28.74
2023-05-02T05:29:43.171Z,29.06
2023-05-02T05:30:43.153Z,28.74
2023-05-02T05:31:43.208Z,28.79
2023-05-02T05:32:43.171Z,28.79
2023-05-02T05:33:43.166Z,29.22
2023-05-02T05:34:43.103Z,28.79
2023-05-02T05:35:43.088Z,28.79
2023-05-02T05:36:43.074Z,28.79
2023-05-02T05:37:43.057Z,28.52
2023-05-02T05:38:43.085Z,28.79
2023-05-02T05:39:43.057Z,28.95
2023-05-02T05:40:43.014Z,28.79
2023-05-02T05:41:43.011Z,28.84
2023-05-02T05:42:42.990Z,28.79
2023-05-02T05:43:43.432Z,28.90
2023-05-02T05:44:42.976Z,28.84
2023-05-02T05:45:42.956Z,28.79
2023-05-02T05:46:43.021Z,28.84
2023-05-02T05:47:42.944Z,28.90
2023-05-02T05:48:42.907Z,28.79
2023-05-02T05:49:42.920Z,28.68
2023-05-02T05:50:42.887Z,28.74
2023-05-02T05:51:42.879Z,28.74
2023-05-02T05:52:42.856Z,28.79
2023-05-02T05:53:42.841Z,28.95
2023-05-02T05:54:42.833Z,28.52
2023-05-02T05:55:42.854Z,28.79
2023-05-02T05:56:42.818Z,28.79
2023-05-02T05:57:42.802Z,28.63
2023-05-02T05:58:42.790Z,28.84
2023-05-02T05:59:42.784Z,28.79
2023-05-02T06:00:42.777Z,28.79
2023-05-02T06:01:42.810Z,28.74
2023-05-02T06:02:42.866Z,28.79
2023-05-02T06:03:42.897Z,28.84
2023-05-02T06:04:42.726Z,28.84
2023-05-02T06:05:42.690Z,28.79
2023-05-02T06:06:42.855Z,28.79
2023-05-02T06:07:42.666Z,28.79
2023-05-02T06:08:42.646Z,28.79
2023-05-02T06:09:42.661Z,28.74
2023-05-02T06:10:42.625Z,28.79
2023-05-02T06:11:42.634Z,28.68
2023-05-02T06:12:42.600Z,29.06
2023-05-02T06:13:42.582Z,28.74
2023-05-02T06:14:42.561Z,28.74
2023-05-02T06:15:42.594Z,28.74
2023-05-02T06:16:42.871Z,28.79
2023-05-02T06:17:42.581Z,28.74
2023-05-02T06:18:42.511Z,28.79
2023-05-02T06:19:42.497Z,28.90
2023-05-02T06:20:42.496Z,28.79
2023-05-02T06:21:42.468Z,28.84
2023-05-02T06:22:42.463Z,28.79
2023-05-02T06:23:42.445Z,28.79
2023-05-02T06:24:42.461Z,28.84
2023-05-02T06:25:42.421Z,28.90
2023-05-02T06:26:42.399Z,28.79
2023-05-02T06:27:42.413Z,28.74
2023-05-02T06:28:42.375Z,28.79
2023-05-02T06:29:42.365Z,29.00
2023-05-02T06:30:42.348Z,28.74
2023-05-02T06:31:42.383Z,28.95
2023-05-02T06:32:42.333Z,28.90
2023-05-02T06:33:42.313Z,28.95
2023-05-02T06:34:42.320Z,28.84
2023-05-02T06:35:42.288Z,28.79
2023-05-02T06:36:42.280Z,28.74
2023-05-02T06:37:42.254Z,28.84
2023-05-02T06:38:42.233Z,28.74
2023-05-02T06:39:42.228Z,28.79
2023-05-02T06:40:42.216Z,28.79
2023-05-02T06:41:42.193Z,29.06
2023-05-02T06:42:42.187Z,28.84
2023-05-02T06:43:42.187Z,28.68
2023-05-02T06:44:42.159Z,28.79
2023-05-02T06:45:42.492Z,28.74
2023-05-02T06:46:42.152Z,28.95
2023-05-02T06:47:42.137Z,28.74
2023-05-02T06:48:42.101Z,28.79
2023-05-02T06:49:42.087Z,28.90
2023-05-02T06:50:42.074Z,28.90
2023-05-02T06:51:42.071Z,29.06
2023-05-02T06:52:42.048Z,28.79
2023-05-02T06:53:42.031Z,28.74
2023-05-02T06:54:42.033Z,28.74
2023-05-02T06:55:42.007Z,28.74
2023-05-02T06:56:41.995Z,28.79
2023-05-02T06:57:41.981Z,28.57
2023-05-02T06:58:41.967Z,28.74
2023-05-02T06:59:41.985Z,28.90
2023-05-02T07:00:41.970Z,28.90
2023-05-02T07:01:42.094Z,28.79
2023-05-02T07:02:41.933Z,28.84
2023-05-02T07:03:41.914Z,28.90
2023-05-02T07:04:41.960Z,28.79
2023-05-02T07:05:42.122Z,28.20
2023-05-02T07:06:41.945Z,28.79
2023-05-02T07:07:41.850Z,28.79
2023-05-02T07:08:41.833Z,28.90
2023-05-02T07:09:41.826Z,28.79
2023-05-02T07:10:41.825Z,28.84
2023-05-02T07:11:41.797Z,28.79
2023-05-02T07:12:41.781Z,28.57
2023-05-02T07:13:41.873Z,28.74
2023-05-02T07:14:41.757Z,28.79
2023-05-02T07:15:41.787Z,28.79
2023-05-02T07:16:41.747Z,28.84
2023-05-02T07:17:41.756Z,28.84
2023-05-02T07:18:41.699Z,28.79
2023-05-02T07:19:43.368Z,28.74
2023-05-02T07:20:41.668Z,28.74
2023-05-02T07:21:41.654Z,28.79
2023-05-02T07:22:41.790Z,28.36
2023-05-02T07:23:41.629Z,28.90
2023-05-02T07:24:41.725Z,28.68
2023-05-02T07:25:41.598Z,28.84
2023-05-02T07:26:41.636Z,28.57
2023-05-02T07:27:41.599Z,29.00
2023-05-02T07:28:41.560Z,28.95
2023-05-02T07:29:41.547Z,28.84
2023-05-02T07:30:41.551Z,28.20
2023-05-02T07:31:41.677Z,28.79
2023-05-02T07:32:41.524Z,29.11
2023-05-02T07:33:41.499Z,28.79
2023-05-02T07:34:41.482Z,28.90
2023-05-02T07:35:41.471Z,28.20
2023-05-02T07:36:41.458Z,28.79
2023-05-02T07:37:41.452Z,28.90
2023-05-02T07:38:41.435Z,28.57
2023-05-02T07:39:41.484Z,28.52
2023-05-02T07:40:41.462Z,28.25
2023-05-02T07:41:41.396Z,28.84
2023-05-02T07:42:41.385Z,28.79
2023-05-02T07:43:41.372Z,28.63
2023-05-02T07:44:41.355Z,28.14
2023-05-02T07:45:41.461Z,28.20
2023-05-02T07:46:41.582Z,28.14
2023-05-02T07:47:41.379Z,28.31
2023-05-02T07:48:41.305Z,28.74
2023-05-02T07:49:41.445Z,28.20
2023-05-02T07:50:41.279Z,28.84
2023-05-02T07:51:41.464Z,28.79
2023-05-02T07:52:41.247Z,28.25
2023-05-02T07:53:41.320Z,28.25
2023-05-02T07:54:41.219Z,28.20
2023-05-02T07:55:41.208Z,28.20
2023-05-02T07:56:41.197Z,28.90
2023-05-02T07:57:41.185Z,28.31
2023-05-02T07:58:41.167Z,28.20
2023-05-02T07:59:41.368Z,28.20
2023-05-02T08:00:41.140Z,28.25
2023-05-02T08:01:41.132Z,28.20
2023-05-02T08:02:41.550Z,28.52
2023-05-02T08:03:41.700Z,28.14
2023-05-02T08:04:41.192Z,28.20
2023-05-02T08:05:41.079Z,28.31
2023-05-02T08:06:41.122Z,28.79
2023-05-02T08:07:41.046Z,28.04
2023-05-02T08:08:41.038Z,28.20
2023-05-02T08:09:41.034Z,28.25
2023-05-02T08:10:41.012Z,28.25
2023-05-02T08:11:40.999Z,28.20
2023-05-02T08:12:40.979Z,28.25
2023-05-02T08:13:40.970Z,28.14
2023-05-02T08:14:40.970Z,28.20
2023-05-02T08:15:40.963Z,28.14
2023-05-02T08:16:42.083Z,28.31
2023-05-02T08:17:40.943Z,28.25
2023-05-02T08:18:40.901Z,28.36
2023-05-02T08:19:40.910Z,28.41
2023-05-02T08:20:40.907Z,28.20
2023-05-02T08:21:40.864Z,28.31
2023-05-02T08:22:40.856Z,28.79
2023-05-02T08:23:40.845Z,28.84
2023-05-02T08:24:40.824Z,28.20
2023-05-02T08:25:40.808Z,28.14
2023-05-02T08:26:40.814Z,28.52
2023-05-02T08:27:40.795Z,28.09
2023-05-02T08:28:40.767Z,28.20
2023-05-02T08:29:40.766Z,28.20
2023-05-02T08:30:40.739Z,28.20
2023-05-02T08:31:40.810Z,28.14
2023-05-02T08:32:40.742Z,28.14
2023-05-02T08:33:40.705Z,28.14
2023-05-02T08:34:40.690Z,28.20
2023-05-02T08:35:40.708Z,28.31
2023-05-02T08:36:40.691Z,28.14
2023-05-02T08:37:40.662Z,28.47
2023-05-02T08:38:40.642Z,28.14
2023-05-02T08:39:40.625Z,28.20
2023-05-02T08:40:42.247Z,28.14
2023-05-02T08:41:40.605Z,28.41
2023-05-02T08:42:40.583Z,28.20
2023-05-02T08:43:40.578Z,28.20
2023-05-02T08:44:40.558Z,28.14
2023-05-02T08:45:40.553Z,28.31
2023-05-02T08:46:40.542Z,28.20
2023-05-02T08:47:40.728Z,28.31
2023-05-02T08:48:40.505Z,28.25
2023-05-02T08:49:40.493Z,28.31
2023-05-02T08:50:40.476Z,28.25
2023-05-02T08:51:42.290Z,28.20
2023-05-02T08:52:40.450Z,28.20
2023-05-02T08:53:40.431Z,28.25
2023-05-02T08:54:40.420Z,28.20
2023-05-02T08:55:40.418Z,28.14
2023-05-02T08:56:40.389Z,28.31
2023-05-02T08:57:40.380Z,28.20
2023-05-02T08:58:40.360Z,28.20
2023-05-02T08:59:40.350Z,28.20
2023-05-02T09:00:40.328Z,28.31
2023-05-02T09:01:40.539Z,28.20
2023-05-02T09:02:40.358Z,28.09
2023-05-02T09:03:40.303Z,28.20
2023-05-02T09:04:40.450Z,28.25
2023-05-02T09:05:40.267Z,28.41
2023-05-02T09:06:40.276Z,28.20
2023-05-02T09:07:40.264Z,28.14
2023-05-02T09:08:40.232Z,28.36
2023-05-02T09:09:40.215Z,28.20
2023-05-02T09:10:40.207Z,28.14
2023-05-02T09:11:40.187Z,28.31
2023-05-02T09:12:40.490Z,28.20
2023-05-02T09:13:40.156Z,28.20
2023-05-02T09:14:40.150Z,28.63
2023-05-02T09:15:40.141Z,28.14
2023-05-02T09:16:40.293Z,28.25
2023-05-02T09:17:40.170Z,28.25
2023-05-02T09:18:40.188Z,28.04
2023-05-02T09:19:40.075Z,28.14
2023-05-02T09:20:40.067Z,28.31
2023-05-02T09:21:40.124Z,28.14
2023-05-02T09:22:40.051Z,28.14
2023-05-02T09:23:40.087Z,28.31
2023-05-02T09:24:40.037Z,28.25
2023-05-02T09:25:40.003Z,28.20
2023-05-02T09:26:39.993Z,28.68
2023-05-02T09:27:39.977Z,27.82
2023-05-02T09:28:39.971Z,27.98
2023-05-02T09:29:39.944Z,28.25
2023-05-02T09:30:40.016Z,28.09
2023-05-02T09:32:39.927Z,28.14
2023-05-02T09:33:39.890Z,27.77
2023-05-02T09:34:39.884Z,27.93
2023-05-02T09:35:39.867Z,27.77
2023-05-02T09:36:39.945Z,28.31
2023-05-02T09:37:39.840Z,28.25
2023-05-02T09:38:39.832Z,27.82
2023-05-02T09:39:39.833Z,27.88
2023-05-02T09:40:39.799Z,27.93
2023-05-02T09:41:39.792Z,27.77
2023-05-02T09:42:39.768Z,27.88
2023-05-02T09:43:39.757Z,27.77
2023-05-02T09:44:39.746Z,27.82
2023-05-02T09:45:39.733Z,27.82
2023-05-02T09:46:39.864Z,27.82
2023-05-02T09:47:39.733Z,27.71
2023-05-02T09:48:39.693Z,27.82
2023-05-02T09:49:39.688Z,27.98
2023-05-02T09:50:39.667Z,27.82
2023-05-02T09:51:39.654Z,27.66
2023-05-02T09:52:39.643Z,27.82
2023-05-02T09:53:39.628Z,27.82
2023-05-02T09:54:39.613Z,27.88
2023-05-02T09:55:39.615Z,27.93
2023-05-02T09:56:39.588Z,27.82
2023-05-02T09:57:39.803Z,27.88
2023-05-02T09:58:39.565Z,27.82
2023-05-02T09:59:39.606Z,27.77
2023-05-02T10:00:39.536Z,27.88
2023-05-02T10:01:39.587Z,27.88
2023-05-02T10:02:39.768Z,27.88
2023-05-02T10:03:39.560Z,27.82
2023-05-02T10:05:12.922Z,27.82
2023-05-02T10:06:12.948Z,27.77
2023-05-02T10:07:12.892Z,27.93
2023-05-02T10:08:12.885Z,27.88
2023-05-02T10:09:15.411Z,27.98
2023-05-02T10:10:12.843Z,27.88
2023-05-02T10:11:12.914Z,27.82
2023-05-02T10:12:12.823Z,28.09
2023-05-02T10:13:12.813Z,27.93
2023-05-02T10:14:12.804Z,27.88
2023-05-02T10:15:12.783Z,27.88
2023-05-02T10:16:12.811Z,27.82
2023-05-02T10:17:12.755Z,27.88
2023-05-02T10:18:12.852Z,28.20
2023-05-02T10:19:12.728Z,27.82
2023-05-02T10:20:12.712Z,27.82
2023-05-02T10:21:12.725Z,27.77
2023-05-02T10:22:12.697Z,27.88
2023-05-02T10:23:12.677Z,28.04
2023-05-02T10:24:12.663Z,28.04
2023-05-02T10:25:12.655Z,27.82
2023-05-02T10:26:12.861Z,27.82
2023-05-02T10:27:12.676Z,27.55
2023-05-02T10:28:12.607Z,27.93
2023-05-02T10:29:12.590Z,27.82
2023-05-02T10:30:12.581Z,27.82
2023-05-02T10:31:12.585Z,27.82
2023-05-02T10:32:12.553Z,28.04
2023-05-02T10:33:12.604Z,28.09
2023-05-02T10:34:12.528Z,27.77
2023-05-02T10:35:12.511Z,27.82
2023-05-02T10:36:12.501Z,27.82
2023-05-02T10:37:12.498Z,27.82
2023-05-02T10:38:12.470Z,27.88
2023-05-02T10:39:12.476Z,27.82
2023-05-02T10:40:12.458Z,27.82
2023-05-02T10:41:12.432Z,27.77
2023-05-02T10:42:12.433Z,27.82
2023-05-02T10:43:12.426Z,27.93
2023-05-02T10:44:12.396Z,28.09
2023-05-02T10:45:12.387Z,27.55
2023-05-02T10:46:12.385Z,27.82
2023-05-02T10:47:12.355Z,27.50
2023-05-02T10:48:12.499Z,27.82
2023-05-02T10:49:12.541Z,27.88
2023-05-02T10:50:12.302Z,27.82
2023-05-02T10:51:12.364Z,27.77
2023-05-02T10:52:12.272Z,27.82
2023-05-02T10:53:12.267Z,27.82
2023-05-02T10:54:12.249Z,27.88
2023-05-02T10:55:12.237Z,27.45
2023-05-02T10:56:12.223Z,27.88
2023-05-02T10:57:12.227Z,27.77
2023-05-02T10:58:12.209Z,27.77
2023-05-02T10:59:12.413Z,27.77
2023-05-02T11:00:12.172Z,27.82
2023-05-02T11:01:12.188Z,27.88
2023-05-02T11:02:12.180Z,27.77
2023-05-02T11:03:12.187Z,27.77
2023-05-02T11:04:12.112Z,27.50
2023-05-02T11:05:12.099Z,27.77
2023-05-02T11:06:12.178Z,27.93
2023-05-02T11:07:12.077Z,27.82
2023-05-02T11:08:12.063Z,27.93
2023-05-02T11:09:12.049Z,27.98
2023-05-02T11:10:12.052Z,27.82
2023-05-02T11:11:12.029Z,27.88
2023-05-02T11:12:12.012Z,27.45
2023-05-02T11:13:12.092Z,27.82
2023-05-02T11:14:12.746Z,28.04
2023-05-02T11:15:12.072Z,27.45
2023-05-02T11:16:11.990Z,27.50
2023-05-02T11:17:11.938Z,27.93
2023-05-02T11:18:12.115Z,27.39
2023-05-02T11:19:11.920Z,27.77
2023-05-02T11:20:11.909Z,27.77
2023-05-02T11:21:11.954Z,27.77
2023-05-02T11:22:11.873Z,27.82
2023-05-02T11:23:12.059Z,27.45
2023-05-02T11:24:11.844Z,27.82
2023-05-02T11:25:11.841Z,27.45
2023-05-02T11:26:11.820Z,27.55
2023-05-02T11:27:11.799Z,27.77
2023-05-02T11:28:11.794Z,27.45
2023-05-02T11:29:11.784Z,27.45
2023-05-02T11:30:11.867Z,27.50
2023-05-02T11:31:11.778Z,27.39
2023-05-02T11:32:11.811Z,27.71
2023-05-02T11:33:11.751Z,27.39
2023-05-02T11:34:11.721Z,27.50
2023-05-02T11:35:11.744Z,27.82
2023-05-02T11:36:11.858Z,27.45
2023-05-02T11:37:11.695Z,27.34
2023-05-02T11:38:11.663Z,27.55
2023-05-02T11:39:11.649Z,27.50
2023-05-02T11:40:11.631Z,27.50
2023-05-02T11:41:12.100Z,27.55
2023-05-02T11:42:11.610Z,27.82
2023-05-02T11:43:11.585Z,27.50
2023-05-02T11:44:11.579Z,27.45
2023-05-02T11:45:11.568Z,27.45
2023-05-02T11:46:11.583Z,27.29
2023-05-02T11:47:11.635Z,27.61
2023-05-02T11:48:11.627Z,27.39
2023-05-02T11:49:12.698Z,27.45
2023-05-02T11:50:11.520Z,27.50
2023-05-02T11:51:11.483Z,27.50
2023-05-02T11:52:11.511Z,27.61
2023-05-02T11:53:11.580Z,27.50
2023-05-02T11:54:11.501Z,27.61
2023-05-02T11:55:11.850Z,27.61
2023-05-02T11:56:11.419Z,27.45
2023-05-02T11:57:11.402Z,27.45
2023-05-02T11:58:11.394Z,27.50
2023-05-02T11:59:11.385Z,27.39
2023-05-02T12:00:11.387Z,27.23
2023-05-02T12:01:11.349Z,27.50
2023-05-02T12:02:11.390Z,27.45
2023-05-02T12:03:11.427Z,27.45
2023-05-02T12:04:11.321Z,27.55
2023-05-02T12:05:11.347Z,27.45
2023-05-02T12:06:11.910Z,27.45
2023-05-02T12:07:12.311Z,27.45
2023-05-02T12:08:11.253Z,27.50
2023-05-02T12:09:11.249Z,27.45
2023-05-02T12:10:11.269Z,27.45
2023-05-02T12:11:11.224Z,27.50
2023-05-02T12:12:11.205Z,27.93
2023-05-02T12:13:11.934Z,27.50
2023-05-02T12:14:11.182Z,27.45
2023-05-02T12:15:11.170Z,27.45
2023-05-02T12:16:11.211Z,27.50
2023-05-02T12:17:11.145Z,27.66
2023-05-02T12:18:11.167Z,27.45
2023-05-02T12:19:11.128Z,27.45
2023-05-02T12:20:11.145Z,27.45
2023-05-02T12:21:11.100Z,27.39
2023-05-02T12:22:11.080Z,27.45
2023-05-02T12:23:11.055Z,27.39
2023-05-02T12:24:11.086Z,27.39
2023-05-02T12:25:11.033Z,27.39
2023-05-02T12:26:11.019Z,27.39
2023-05-02T12:27:11.008Z,27.61
2023-05-02T12:28:10.997Z,27.45
2023-05-02T12:29:10.996Z,27.50
2023-05-02T12:30:11.033Z,27.45
2023-05-02T12:31:11.010Z,27.55
2023-05-02T12:32:10.931Z,27.39
2023-05-02T12:33:10.970Z,27.66
2023-05-02T12:34:10.909Z,27.34
2023-05-02T12:35:10.914Z,27.39
2023-05-02T12:36:10.895Z,27.50
2023-05-02T12:37:10.867Z,27.39
2023-05-02T12:38:10.881Z,27.39
2023-05-02T12:39:10.842Z,27.39
2023-05-02T12:40:10.832Z,27.45
2023-05-02T12:41:10.818Z,27.50
2023-05-02T12:42:10.828Z,27.77
2023-05-02T12:43:10.792Z,27.39
2023-05-02T12:44:10.778Z,27.55
2023-05-02T12:45:10.755Z,27.34
2023-05-02T12:46:10.743Z,27.39
2023-05-02T12:47:10.810Z,27.55
2023-05-02T12:48:10.753Z,27.66
2023-05-02T12:49:10.711Z,27.45
2023-05-02T12:50:44.163Z,27.39
2023-05-02T12:51:44.137Z,27.45
2023-05-02T12:52:44.100Z,27.39
2023-05-02T12:53:44.092Z,27.39
2023-05-02T12:54:44.628Z,27.29